Time;durP1;ratioP1;P1;durP2;ratioP2;P2;SDS_P1;SDS_P2;PMS_P1;PMS_P2;Temp;Humidity;BMP_temperature;BMP_pressure;BME280_temperature;BME280_humidity;BME280_pressure;Samples;Min_cycle;Max_cycle;Signal;HPM_P1;HPM_P2
2021/09/07 00:02:10;;;;;;;13.07;9.65;;;14.80;99.90;;;;;;5054432;28;20027;-77
2021/09/07 00:04:36;;;;;;;11.60;10.40;;;14.90;99.90;;;;;;5054500;28;20402;-77
2021/09/07 00:07:01;;;;;;;15.85;11.13;;;14.90;99.90;;;;;;5054264;28;20420;-77
2021/09/07 00:09:27;;;;;;;15.02;11.80;;;14.90;99.90;;;;;;5052983;28;20586;-77
2021/09/07 00:11:53;;;;;;;14.35;11.93;;;15.00;99.90;;;;;;5062966;28;20031;-77
2021/09/07 00:14:18;;;;;;;14.80;12.60;;;15.20;99.90;;;;;;5074002;28;20027;-77
2021/09/07 00:16:44;;;;;;;15.65;12.70;;;15.20;99.90;;;;;;5064804;28;20545;-77
2021/09/07 00:19:09;;;;;;;15.75;12.00;;;15.20;99.90;;;;;;5054081;28;20029;-77
2021/09/07 00:21:35;;;;;;;15.00;11.73;;;15.20;99.90;;;;;;5054029;28;20025;-77
2021/09/07 00:24:00;;;;;;;15.40;12.25;;;15.20;99.90;;;;;;5052256;28;20072;-77
2021/09/07 00:26:26;;;;;;;15.55;12.43;;;15.00;99.90;;;;;;5053805;28;20032;-77
2021/09/07 00:28:51;;;;;;;13.98;12.52;;;14.90;99.90;;;;;;5053852;28;20025;-77
2021/09/07 00:31:17;;;;;;;15.20;11.93;;;15.00;99.90;;;;;;5053909;28;20398;-77
2021/09/07 00:33:42;;;;;;;14.63;11.77;;;15.00;99.90;;;;;;5053708;28;20029;-77
2021/09/07 00:36:08;;;;;;;14.95;11.82;;;15.00;99.90;;;;;;5052345;28;20437;-77
2021/09/07 00:38:33;;;;;;;15.18;12.48;;;14.90;99.90;;;;;;5052359;28;20032;-77
2021/09/07 00:40:59;;;;;;;13.40;11.80;;;15.00;99.90;;;;;;5052490;28;20028;-77
2021/09/07 00:43:25;;;;;;;16.23;11.63;;;15.00;99.90;;;;;;5052226;28;20045;-77
2021/09/07 00:45:50;;;;;;;17.25;12.38;;;15.00;99.90;;;;;;5052261;28;20167;-77
2021/09/07 00:48:16;;;;;;;14.25;11.70;;;14.90;99.90;;;;;;5052293;28;20049;-77
2021/09/07 00:50:41;;;;;;;16.77;11.43;;;14.80;99.90;;;;;;5053446;28;20403;-77
2021/09/07 00:53:08;;;;;;;13.10;11.70;;;14.80;99.90;;;;;;5053491;28;20491;-77
2021/09/07 00:55:34;;;;;;;15.40;12.18;;;14.60;99.90;;;;;;5051951;28;20029;-77
2021/09/07 00:58:03;;;;;;;16.58;14.05;;;14.50;99.90;;;;;;5053584;28;20029;-77
2021/09/07 01:00:29;;;;;;;14.60;12.60;;;14.10;99.90;;;;;;5052105;28;20024;-77
2021/09/07 01:02:54;;;;;;;18.10;14.95;;;13.70;99.90;;;;;;5052006;28;20025;-77
2021/09/07 01:05:20;;;;;;;17.63;15.02;;;13.40;99.90;;;;;;5051640;28;20021;-77
2021/09/07 01:07:46;;;;;;;19.98;15.48;;;13.30;99.90;;;;;;5053009;28;20392;-77
2021/09/07 01:10:11;;;;;;;17.33;14.88;;;13.20;99.90;;;;;;5062177;28;20459;-76
2021/09/07 01:12:37;;;;;;;17.83;13.68;;;13.40;99.90;;;;;;5055936;28;20456;-77
2021/09/07 01:15:03;;;;;;;15.45;13.15;;;13.50;99.90;;;;;;5051759;28;20049;-77
2021/09/07 01:17:29;;;;;;;18.42;13.93;;;13.70;99.90;;;;;;5065680;28;20025;-77
2021/09/07 01:19:54;;;;;;;17.10;14.38;;;13.90;99.90;;;;;;5051735;28;20078;-77
2021/09/07 01:22:22;;;;;;;15.40;13.57;;;13.70;99.90;;;;;;5052101;28;20021;-75
2021/09/07 01:24:49;;;;;;;16.08;12.50;;;13.50;99.90;;;;;;5051363;28;20483;-75
2021/09/07 01:27:15;;;;;;;13.73;10.98;;;13.80;99.90;;;;;;5052689;28;20032;-75
2021/09/07 01:29:42;;;;;;;12.82;11.45;;;14.00;99.90;;;;;;5052842;28;20074;-76
2021/09/07 01:32:10;;;;;;;15.20;12.23;;;14.20;99.90;;;;;;5052622;28;20108;-76
2021/09/07 01:34:36;;;;;;;14.68;12.63;;;14.40;99.90;;;;;;5051730;28;20068;-76
2021/09/07 01:37:02;;;;;;;14.85;13.27;;;14.40;99.90;;;;;;5052540;28;20108;-75
2021/09/07 01:39:28;;;;;;;14.95;12.23;;;14.50;99.90;;;;;;5052611;28;20025;-76
2021/09/07 01:41:54;;;;;;;14.80;13.20;;;14.40;99.90;;;;;;5052549;28;20029;-76
2021/09/07 01:44:21;;;;;;;18.50;12.70;;;14.40;99.90;;;;;;5052201;28;20033;-75
2021/09/07 01:46:46;;;;;;;16.15;13.05;;;14.40;99.90;;;;;;5051097;28;20025;-75
2021/09/07 01:49:14;;;;;;;16.35;13.77;;;14.50;99.90;;;;;;5051331;28;20103;-76
2021/09/07 01:51:42;;;;;;;16.85;13.75;;;14.60;99.90;;;;;;5050905;28;20032;-76
2021/09/07 01:54:09;;;;;;;18.63;13.82;;;14.60;99.90;;;;;;5052272;28;20027;-75
2021/09/07 01:56:35;;;;;;;18.65;13.85;;;14.40;99.90;;;;;;5052145;28;20025;-76
2021/09/07 01:59:02;;;;;;;15.63;13.98;;;14.50;99.90;;;;;;5052273;28;20422;-76
2021/09/07 02:01:28;;;;;;;18.27;13.68;;;14.50;99.90;;;;;;5052128;28;20018;-75
2021/09/07 02:03:54;;;;;;;20.42;13.88;;;14.60;99.90;;;;;;5050845;28;20031;-75
2021/09/07 02:06:19;;;;;;;16.27;12.95;;;14.60;99.90;;;;;;5051821;28;20017;-76
2021/09/07 02:08:45;;;;;;;21.02;14.13;;;14.80;99.90;;;;;;5050873;28;20029;-77
2021/09/07 02:11:10;;;;;;;16.77;13.95;;;14.70;99.90;;;;;;5064925;28;20036;-76
2021/09/07 02:13:36;;;;;;;17.27;14.60;;;14.80;99.90;;;;;;5050999;28;20029;-75
2021/09/07 02:16:02;;;;;;;21.05;14.73;;;14.70;99.90;;;;;;5055034;28;20103;-75
2021/09/07 02:18:28;;;;;;;18.77;14.52;;;14.80;99.90;;;;;;5060742;28;20036;-75
2021/09/07 02:20:53;;;;;;;18.10;13.80;;;14.80;99.90;;;;;;5050581;28;20022;-75
2021/09/07 02:23:19;;;;;;;18.35;14.45;;;14.70;99.90;;;;;;5051763;28;20111;-76
2021/09/07 02:25:44;;;;;;;16.63;13.85;;;14.70;99.90;;;;;;5050295;28;20021;-75
2021/09/07 02:28:10;;;;;;;15.25;12.82;;;14.70;99.90;;;;;;5050596;28;20025;-76
2021/09/07 02:30:36;;;;;;;18.83;13.40;;;14.80;99.90;;;;;;5051688;28;20025;-75
2021/09/07 02:33:01;;;;;;;18.73;13.77;;;14.70;99.90;;;;;;5050429;28;20025;-75
2021/09/07 02:35:28;;;;;;;15.95;13.88;;;14.80;99.90;;;;;;5051360;28;20029;-76
2021/09/07 02:37:54;;;;;;;18.73;14.07;;;14.60;99.90;;;;;;5051573;28;20439;-76
2021/09/07 02:40:20;;;;;;;19.48;14.95;;;14.40;99.90;;;;;;5051724;28;20027;-76
2021/09/07 02:42:45;;;;;;;19.98;15.52;;;14.30;99.90;;;;;;5051621;28;20105;-75
2021/09/07 02:45:11;;;;;;;20.58;14.45;;;14.10;99.90;;;;;;5049849;28;20029;-75
2021/09/07 02:47:40;;;;;;;16.92;14.52;;;14.10;99.90;;;;;;5050237;28;20052;-76
2021/09/07 02:50:08;;;;;;;18.65;14.80;;;14.20;99.90;;;;;;5051491;28;20422;-76
2021/09/07 02:52:34;;;;;;;18.60;15.73;;;13.90;99.90;;;;;;5050301;28;20040;-76
2021/09/07 02:54:59;;;;;;;19.50;15.02;;;13.60;99.90;;;;;;5051151;28;20104;-76
2021/09/07 02:57:25;;;;;;;21.00;15.90;;;13.80;99.90;;;;;;5050173;28;20095;-76
2021/09/07 02:59:50;;;;;;;19.50;15.40;;;13.90;99.90;;;;;;5051292;28;20119;-75
2021/09/07 03:02:16;;;;;;;16.92;14.65;;;13.80;99.90;;;;;;5050160;28;20017;-76
2021/09/07 03:04:41;;;;;;;18.17;14.80;;;13.90;99.90;;;;;;5051204;28;20029;-76
2021/09/07 03:07:07;;;;;;;18.48;14.70;;;13.80;99.90;;;;;;5051455;28;20021;-75
2021/09/07 03:09:32;;;;;;;18.92;16.88;;;13.70;99.90;;;;;;5051281;28;20013;-75
2021/09/07 03:11:58;;;;;;;20.70;15.82;;;13.40;99.90;;;;;;5062077;28;20017;-76
2021/09/07 03:14:23;;;;;;;21.55;17.25;;;13.50;99.90;;;;;;5069671;28;20394;-76
2021/09/07 03:16:49;;;;;;;19.90;17.30;;;13.40;99.90;;;;;;5060036;28;20029;-75
2021/09/07 03:19:14;;;;;;;19.90;16.63;;;13.30;99.90;;;;;;5051043;28;20075;-76
2021/09/07 03:21:41;;;;;;;18.98;15.75;;;13.40;99.90;;;;;;5049942;28;20024;-75
2021/09/07 03:24:06;;;;;;;18.65;14.85;;;13.60;99.90;;;;;;5051233;28;20017;-75
2021/09/07 03:26:32;;;;;;;18.17;15.00;;;13.80;99.90;;;;;;5051031;28;20378;-76
2021/09/07 03:28:57;;;;;;;18.70;15.35;;;13.80;99.90;;;;;;5051089;28;20021;-75
2021/09/07 03:31:23;;;;;;;16.45;13.77;;;13.80;99.90;;;;;;5051217;28;20087;-75
2021/09/07 03:33:48;;;;;;;17.95;13.95;;;13.90;99.90;;;;;;5050974;28;20547;-76
2021/09/07 03:36:14;;;;;;;17.48;13.77;;;13.80;99.90;;;;;;5049592;28;20034;-75
2021/09/07 03:38:40;;;;;;;18.85;14.73;;;13.90;99.90;;;;;;5050992;28;20029;-76
2021/09/07 03:41:05;;;;;;;18.42;14.68;;;14.00;99.90;;;;;;5050965;28;20043;-76
2021/09/07 03:43:31;;;;;;;16.92;13.77;;;13.90;99.90;;;;;;5050781;28;20035;-75
2021/09/07 03:45:57;;;;;;;15.30;13.70;;;14.00;99.90;;;;;;5050854;28;20028;-75
2021/09/07 03:48:22;;;;;;;16.77;14.85;;;14.10;99.90;;;;;;5050904;28;20352;-75
2021/09/07 03:50:48;;;;;;;18.63;15.18;;;14.00;99.90;;;;;;5051020;28;20170;-75
2021/09/07 03:53:13;;;;;;;17.55;14.45;;;14.10;99.90;;;;;;5050855;28;20036;-75
2021/09/07 03:55:39;;;;;;;17.83;15.93;;;14.10;99.90;;;;;;5050788;28;20082;-75
2021/09/07 03:58:05;;;;;;;18.02;15.70;;;14.00;99.90;;;;;;5051545;28;20052;-75
2021/09/07 04:00:31;;;;;;;21.30;16.58;;;14.00;99.90;;;;;;5054578;28;20529;-76
2021/09/07 04:02:56;;;;;;;18.50;15.85;;;13.90;99.90;;;;;;5054404;28;20100;-75
2021/09/07 04:05:22;;;;;;;18.67;16.63;;;13.80;99.90;;;;;;5052901;28;20020;-75
2021/09/07 04:07:48;;;;;;;19.98;16.15;;;13.90;99.90;;;;;;5054425;28;20035;-76
2021/09/07 04:10:14;;;;;;;21.25;17.10;;;14.00;99.90;;;;;;5063807;28;20409;-75
2021/09/07 04:12:39;;;;;;;21.83;17.65;;;14.00;99.90;;;;;;5058133;28;20543;-76
2021/09/07 04:15:06;;;;;;;19.92;16.80;;;14.00;99.90;;;;;;5052834;28;20021;-75
2021/09/07 04:17:32;;;;;;;23.42;18.02;;;13.90;99.90;;;;;;5065675;28;20021;-76
2021/09/07 04:19:57;;;;;;;20.98;17.65;;;13.80;99.90;;;;;;5052865;28;20378;-75
2021/09/07 04:22:23;;;;;;;21.83;17.27;;;13.80;99.90;;;;;;5053931;28;20087;-76
2021/09/07 04:24:48;;;;;;;20.40;15.63;;;13.80;99.90;;;;;;5053923;28;20025;-76
2021/09/07 04:27:14;;;;;;;20.40;15.85;;;13.80;99.90;;;;;;5053847;28;20589;-77
2021/09/07 04:29:39;;;;;;;17.40;15.45;;;13.80;99.90;;;;;;5053977;28;20025;-75
2021/09/07 04:32:05;;;;;;;19.70;15.85;;;13.80;99.90;;;;;;5052824;28;20098;-76
2021/09/07 04:34:31;;;;;;;18.23;15.63;;;13.80;99.90;;;;;;5053685;28;20022;-76
2021/09/07 04:36:56;;;;;;;20.92;15.68;;;13.80;99.90;;;;;;5053756;28;20032;-76
2021/09/07 04:39:22;;;;;;;21.05;15.60;;;13.90;99.90;;;;;;5053683;28;20025;-76
2021/09/07 04:41:47;;;;;;;18.38;14.80;;;14.00;99.90;;;;;;5052402;28;20025;-75
2021/09/07 04:44:13;;;;;;;19.80;16.05;;;14.00;99.90;;;;;;5053482;28;20025;-75
2021/09/07 04:46:39;;;;;;;22.10;17.23;;;14.10;99.90;;;;;;5053479;28;20021;-76
2021/09/07 04:49:05;;;;;;;20.58;16.13;;;14.10;99.90;;;;;;5053660;28;20163;-75
2021/09/07 04:51:31;;;;;;;20.48;15.77;;;14.10;99.90;;;;;;5053534;28;20476;-76
2021/09/07 04:53:58;;;;;;;18.42;16.45;;;14.10;99.90;;;;;;5052277;28;20029;-76
2021/09/07 04:56:24;;;;;;;22.83;18.35;;;14.00;99.90;;;;;;5053008;28;20028;-76
2021/09/07 04:58:49;;;;;;;19.77;17.63;;;13.50;99.90;;;;;;5052161;28;20029;-75
2021/09/07 05:01:15;;;;;;;25.25;16.98;;;13.40;99.90;;;;;;5052027;28;20594;-75
2021/09/07 05:03:40;;;;;;;24.38;18.52;;;13.40;99.90;;;;;;5053241;28;20426;-75
2021/09/07 05:06:06;;;;;;;20.45;17.75;;;13.40;99.90;;;;;;5053053;28;20025;-75
2021/09/07 05:08:32;;;;;;;19.80;16.67;;;13.50;99.90;;;;;;5053292;28;20024;-75
2021/09/07 05:10:57;;;;;;;20.48;17.48;;;13.60;99.90;;;;;;5067001;28;20478;-75
2021/09/07 05:13:24;;;;;;;19.25;17.05;;;13.70;99.90;;;;;;5071780;28;20056;-75
2021/09/07 05:15:50;;;;;;;25.13;18.90;;;13.50;99.90;;;;;;5072806;28;20058;-75
2021/09/07 05:18:16;;;;;;;24.60;18.85;;;13.20;99.90;;;;;;5073075;28;20433;-75
2021/09/07 05:20:42;;;;;;;24.40;19.33;;;13.20;99.90;;;;;;5071658;28;20025;-75
2021/09/07 05:23:07;;;;;;;23.70;19.20;;;13.20;99.90;;;;;;5072919;28;20033;-75
2021/09/07 05:25:33;;;;;;;21.33;17.48;;;13.30;99.90;;;;;;5072379;28;20082;-75
2021/09/07 05:27:58;;;;;;;19.90;15.77;;;13.10;99.90;;;;;;5071592;28;20020;-75
2021/09/07 05:30:24;;;;;;;21.30;17.50;;;13.30;99.90;;;;;;5071741;28;20033;-75
2021/09/07 05:32:49;;;;;;;23.30;17.30;;;13.30;99.90;;;;;;5072769;28;20039;-76
2021/09/07 05:35:16;;;;;;;21.52;17.95;;;13.30;99.90;;;;;;5072256;28;20043;-75
2021/09/07 05:37:41;;;;;;;21.40;17.73;;;13.20;99.90;;;;;;5072502;28;20031;-75
2021/09/07 05:40:09;;;;;;;22.38;17.90;;;13.20;99.90;;;;;;5072554;28;20016;-75
2021/09/07 05:42:35;;;;;;;21.35;17.35;;;13.60;99.90;;;;;;5072574;28;20031;-75
2021/09/07 05:45:00;;;;;;;19.30;15.93;;;13.50;99.90;;;;;;5072121;28;20028;-75
2021/09/07 05:47:26;;;;;;;19.95;16.58;;;13.60;99.90;;;;;;5072559;28;20107;-75
2021/09/07 05:49:52;;;;;;;18.60;16.52;;;13.60;99.90;;;;;;5057342;28;20100;-75
2021/09/07 05:52:17;;;;;;;21.88;17.67;;;13.80;99.90;;;;;;5052394;28;20071;-76
2021/09/07 05:54:43;;;;;;;21.83;17.33;;;13.70;99.90;;;;;;5050684;28;20052;-75
2021/09/07 05:57:08;;;;;;;20.05;16.95;;;13.70;99.90;;;;;;5051158;28;20028;-75
2021/09/07 05:59:34;;;;;;;18.98;15.70;;;13.80;99.90;;;;;;5052301;28;20130;-75
2021/09/07 06:01:59;;;;;;;22.65;16.88;;;14.10;99.90;;;;;;5050961;28;20570;-75
2021/09/07 06:04:25;;;;;;;19.02;16.20;;;14.20;99.90;;;;;;5050591;28;20029;-76
2021/09/07 06:06:51;;;;;;;22.55;16.58;;;14.20;99.90;;;;;;5050932;28;20091;-76
2021/09/07 06:09:17;;;;;;;21.17;17.02;;;14.10;99.90;;;;;;5053368;28;20032;-76
2021/09/07 06:11:43;;;;;;;19.95;17.33;;;14.20;99.90;;;;;;5063389;28;20382;-75
2021/09/07 06:14:08;;;;;;;21.75;18.10;;;14.40;99.90;;;;;;5051832;28;20025;-75
2021/09/07 06:16:34;;;;;;;20.00;16.92;;;14.50;99.90;;;;;;5059743;28;20058;-76
2021/09/07 06:18:59;;;;;;;22.40;18.80;;;14.40;99.90;;;;;;5056551;28;20069;-75
2021/09/07 06:21:25;;;;;;;22.63;18.52;;;14.40;99.90;;;;;;5051552;28;20021;-76
2021/09/07 06:23:51;;;;;;;21.85;18.45;;;14.40;99.90;;;;;;5050426;28;20111;-75
2021/09/07 06:26:17;;;;;;;22.17;18.80;;;14.60;99.90;;;;;;5051747;28;20017;-75
2021/09/07 06:28:44;;;;;;;25.35;19.20;;;14.80;99.90;;;;;;5051773;28;20029;-75
2021/09/07 06:31:09;;;;;;;23.23;19.40;;;14.90;99.90;;;;;;5050556;28;20116;-75
2021/09/07 06:33:35;;;;;;;24.02;17.35;;;14.90;99.90;;;;;;5063840;28;20115;-75
2021/09/07 06:36:00;;;;;;;21.65;17.30;;;15.00;99.90;;;;;;5050298;28;20052;-75
2021/09/07 06:38:26;;;;;;;19.20;16.20;;;15.20;99.90;;;;;;5051432;28;20033;-75
2021/09/07 06:40:51;;;;;;;25.10;16.92;;;15.30;99.90;;;;;;5051688;28;20021;-75
2021/09/07 06:43:17;;;;;;;22.48;17.38;;;15.30;99.90;;;;;;5050215;28;20021;-76
2021/09/07 06:45:42;;;;;;;22.85;16.50;;;15.30;99.90;;;;;;5050012;28;20040;-76
2021/09/07 06:48:08;;;;;;;19.35;16.83;;;15.30;99.90;;;;;;5050221;28;20029;-75
2021/09/07 06:50:33;;;;;;;21.40;17.30;;;15.40;99.90;;;;;;5051549;28;20029;-76
2021/09/07 06:53:00;;;;;;;24.00;16.83;;;15.40;99.90;;;;;;5051368;28;20057;-75
2021/09/07 06:55:25;;;;;;;23.00;18.33;;;15.40;99.90;;;;;;5051103;28;20422;-76
2021/09/07 06:57:51;;;;;;;20.77;18.05;;;15.40;99.90;;;;;;5051327;28;20029;-75
2021/09/07 07:00:17;;;;;;;22.83;17.77;;;15.40;99.90;;;;;;5051415;28;20434;-75
2021/09/07 07:02:43;;;;;;;24.58;17.98;;;15.50;99.90;;;;;;5050124;28;20029;-76
2021/09/07 07:05:08;;;;;;;18.58;16.60;;;15.80;99.90;;;;;;5049837;28;20438;-76
2021/09/07 07:07:34;;;;;;;24.08;16.60;;;15.80;99.90;;;;;;5051189;28;20091;-75
2021/09/07 07:10:00;;;;;;;19.33;16.17;;;15.90;99.90;;;;;;5050107;28;20033;-75
2021/09/07 07:12:26;;;;;;;19.58;17.48;;;16.10;99.90;;;;;;5063387;28;20052;-76
2021/09/07 07:14:51;;;;;;;21.90;17.48;;;16.20;99.90;;;;;;5051222;28;20146;-76
2021/09/07 07:17:17;;;;;;;24.08;16.90;;;16.30;99.90;;;;;;5063984;28;20104;-75
2021/09/07 07:19:42;;;;;;;22.08;17.95;;;16.30;99.90;;;;;;5051283;28;20036;-76
2021/09/07 07:22:08;;;;;;;21.67;17.48;;;16.50;99.90;;;;;;5051566;28;20088;-77
2021/09/07 07:24:34;;;;;;;22.25;17.70;;;16.60;99.90;;;;;;5050981;28;20032;-76
2021/09/07 07:27:01;;;;;;;23.42;17.92;;;16.70;99.90;;;;;;5051214;28;20021;-77
2021/09/07 07:29:27;;;;;;;21.15;16.98;;;16.70;99.90;;;;;;5051376;28;20057;-77
2021/09/07 07:31:52;;;;;;;18.73;16.73;;;16.80;99.90;;;;;;5051220;28;20523;-76
2021/09/07 07:34:18;;;;;;;21.25;17.27;;;16.90;99.90;;;;;;5053857;28;20017;-75
2021/09/07 07:36:43;;;;;;;19.50;16.60;;;16.90;99.90;;;;;;5054929;28;20207;-77
2021/09/07 07:39:09;;;;;;;24.02;17.65;;;17.00;99.90;;;;;;5053604;28;20475;-77
2021/09/07 07:41:34;;;;;;;22.15;17.38;;;17.20;99.90;;;;;;5054870;28;20029;-77
2021/09/07 07:44:00;;;;;;;22.77;18.13;;;17.30;99.90;;;;;;5061461;28;20471;-77
2021/09/07 07:46:26;;;;;;;24.88;18.77;;;17.30;99.90;;;;;;5059997;28;20029;-77
2021/09/07 07:48:51;;;;;;;19.35;17.27;;;17.30;99.90;;;;;;5066718;28;20025;-77
2021/09/07 07:51:18;;;;;;;21.65;16.60;;;17.30;99.90;;;;;;5054677;28;20483;-77
2021/09/07 07:53:43;;;;;;;21.45;16.85;;;17.20;99.90;;;;;;5054618;28;20479;-77
2021/09/07 07:56:09;;;;;;;22.48;18.25;;;17.20;99.90;;;;;;5052967;28;20074;-77
2021/09/07 07:58:34;;;;;;;23.67;18.42;;;17.20;99.90;;;;;;5054420;28;20033;-77
2021/09/07 08:01:00;;;;;;;26.08;18.50;;;17.10;99.90;;;;;;5054353;28;20048;-77
2021/09/07 08:03:26;;;;;;;24.92;19.65;;;17.20;99.90;;;;;;5054176;28;20100;-77
2021/09/07 08:05:52;;;;;;;26.88;18.73;;;17.20;99.90;;;;;;5054007;28;20099;-77
2021/09/07 08:08:18;;;;;;;23.58;18.55;;;17.20;99.90;;;;;;5052954;28;20032;-77
2021/09/07 08:10:43;;;;;;;22.77;18.27;;;17.30;99.90;;;;;;5054709;28;20052;-77
2021/09/07 08:13:09;;;;;;;23.08;18.92;;;17.40;99.90;;;;;;5072989;28;20157;-77
2021/09/07 08:15:35;;;;;;;23.77;17.42;;;17.50;99.90;;;;;;5060050;28;20056;-77
2021/09/07 08:18:01;;;;;;;21.15;17.17;;;17.60;99.90;;;;;;5065702;28;20052;-76
2021/09/07 08:20:29;;;;;;;22.10;17.38;;;17.70;99.90;;;;;;5052530;28;20032;-77
2021/09/07 08:22:54;;;;;;;22.73;16.35;;;18.00;99.90;;;;;;5052741;28;20029;-77
2021/09/07 08:25:20;;;;;;;19.52;15.98;;;18.10;99.90;;;;;;5053786;28;20505;-77
2021/09/07 08:27:45;;;;;;;19.40;15.45;;;18.10;99.90;;;;;;5053924;28;20028;-77
2021/09/07 08:30:11;;;;;;;18.35;16.15;;;18.20;99.90;;;;;;5052701;28;20025;-77
2021/09/07 08:32:41;;;;;;;19.10;15.43;;;18.30;99.90;;;;;;5052719;28;20112;-77
2021/09/07 08:35:11;;;;;;;18.65;15.18;;;18.40;99.90;;;;;;5052227;28;20490;-77
2021/09/07 08:37:38;;;;;;;20.92;15.80;;;18.40;99.90;;;;;;5052466;28;20039;-77
2021/09/07 08:40:06;;;;;;;19.67;15.57;;;18.70;99.90;;;;;;5066044;28;20016;-77
2021/09/07 08:42:33;;;;;;;21.00;15.05;;;18.80;99.90;;;;;;5052422;28;20090;-77
2021/09/07 08:45:00;;;;;;;18.17;15.02;;;18.90;99.90;;;;;;5053195;28;20395;-77
2021/09/07 08:47:26;;;;;;;18.02;14.93;;;18.90;99.90;;;;;;5053710;28;20025;-77
2021/09/07 08:49:51;;;;;;;17.50;14.52;;;19.10;99.90;;;;;;5055079;28;20060;-77
2021/09/07 08:52:19;;;;;;;16.58;13.90;;;19.20;99.90;;;;;;5065402;28;20067;-77
2021/09/07 08:54:45;;;;;;;18.05;13.23;;;19.30;99.90;;;;;;5051970;28;20025;-77
2021/09/07 08:57:11;;;;;;;18.33;14.00;;;19.60;99.90;;;;;;5053493;28;20013;-77
2021/09/07 08:59:37;;;;;;;15.43;13.02;;;19.80;99.90;;;;;;5053223;28;20040;-77
2021/09/07 09:02:18;;;;;;;19.15;14.10;;;20.10;99.90;;;;;;5053351;28;20025;-77
2021/09/07 09:04:46;;;;;;;17.27;14.27;;;20.00;99.90;;;;;;5053008;28;20017;-77
2021/09/07 09:07:23;;;;;;;19.08;14.18;;;20.10;99.90;;;;;;5053339;28;20017;-77
2021/09/07 09:09:49;;;;;;;19.52;14.48;;;20.10;99.90;;;;;;5051902;28;20021;-77
2021/09/07 09:12:16;;;;;;;17.15;13.85;;;20.20;99.90;;;;;;5066157;28;20020;-77
2021/09/07 09:14:45;;;;;;;17.25;13.98;;;20.10;99.90;;;;;;5071372;28;20479;-77
2021/09/07 09:17:16;;;;;;;16.60;13.50;;;20.20;99.90;;;;;;5060047;28;20049;-77
2021/09/07 09:20:06;;;;;;;17.60;13.07;;;20.10;99.90;;;;;;5052922;28;20021;-77
2021/09/07 09:22:56;;;;;;;16.45;13.48;;;20.20;99.90;;;;;;5051602;28;20048;-77
2021/09/07 09:25:24;;;;;;;16.92;12.65;;;20.30;99.90;;;;;;5051314;28;20025;-77
2021/09/07 09:28:09;;;;;;;19.83;13.95;;;20.30;99.90;;;;;;5052789;28;20039;-77
2021/09/07 09:30:36;;;;;;;19.17;13.63;;;20.30;99.90;;;;;;5052021;28;20041;-77
2021/09/07 09:33:03;;;;;;;16.40;13.82;;;20.40;99.90;;;;;;5052856;28;20029;-77
2021/09/07 09:35:29;;;;;;;16.67;14.18;;;20.50;99.90;;;;;;5050995;28;20119;-77
2021/09/07 09:38:06;;;;;;;19.85;14.27;;;20.50;99.90;;;;;;5051253;28;20032;-77
2021/09/07 09:40:33;;;;;;;17.58;14.32;;;20.70;99.90;;;;;;5051090;28;20025;-76
2021/09/07 09:43:19;;;;;;;16.70;14.23;;;20.70;99.90;;;;;;5052838;28;20568;-77
2021/09/07 09:45:45;;;;;;;20.75;14.85;;;20.60;99.90;;;;;;5060774;28;20186;-77
2021/09/07 09:48:27;;;;;;;16.77;14.82;;;20.80;99.90;;;;;;5071399;28;20546;-77
2021/09/07 09:50:54;;;;;;;20.90;14.45;;;20.90;99.90;;;;;;5072651;28;20437;-77
2021/09/07 09:53:21;;;;;;;17.60;15.30;;;20.90;99.90;;;;;;5072348;28;20025;-77
2021/09/07 09:55:48;;;;;;;16.80;14.60;;;21.00;99.90;;;;;;5071572;28;20025;-77
2021/09/07 09:58:17;;;;;;;17.40;14.55;;;21.10;99.90;;;;;;5068432;28;20106;-77
2021/09/07 10:00:47;;;;;;;15.63;13.60;;;21.30;99.90;;;;;;5052337;28;20025;-77
2021/09/07 10:03:14;;;;;;;16.83;13.40;;;21.50;99.90;;;;;;5055959;28;20384;-77
2021/09/07 10:05:41;;;;;;;16.23;13.20;;;21.40;99.90;;;;;;5060339;28;20020;-77
2021/09/07 10:08:08;;;;;;;15.82;14.13;;;21.60;99.90;;;;;;5050898;28;20029;-77
2021/09/07 10:10:35;;;;;;;17.10;14.32;;;21.60;99.90;;;;;;5050703;28;20025;-77
2021/09/07 10:13:03;;;;;;;17.02;13.07;;;21.80;99.90;;;;;;5071248;28;20024;-77
2021/09/07 10:15:42;;;;;;;20.23;14.63;;;22.00;99.90;;;;;;5071713;28;20027;-77
2021/09/07 10:23:58;;;;;;;17.05;13.45;;;21.90;99.90;;;;;;5052412;28;20403;-77
2021/09/07 10:26:39;;;;;;;18.73;14.55;;;22.30;99.90;;;;;;5059747;28;20494;-77
2021/09/07 10:29:09;;;;;;;16.33;13.77;;;22.40;99.90;;;;;;5070658;28;20051;-77
2021/09/07 10:31:49;;;;;;;19.65;13.98;;;22.40;99.90;;;;;;5071920;28;20063;-77
2021/09/07 10:34:17;;;;;;;16.95;13.57;;;22.70;99.90;;;;;;5070510;28;20028;-77
2021/09/07 10:37:09;;;;;;;21.98;15.10;;;22.70;99.90;;;;;;5070280;28;20484;-77
2021/09/07 10:39:37;;;;;;;19.52;13.75;;;22.70;99.90;;;;;;5071798;28;20051;-77
2021/09/07 10:42:05;;;;;;;16.92;12.13;;;22.70;99.90;;;;;;5071569;28;20066;-77
2021/09/07 10:44:32;;;;;;;15.82;13.13;;;23.20;99.90;;;;;;5071230;28;20162;-77
2021/09/07 10:47:06;;;;;;;14.88;11.93;;;23.70;99.90;;;;;;5071617;28;20012;-77
2021/09/07 10:49:41;;;;;;;14.75;12.13;;;23.90;99.90;;;;;;5070576;28;20029;-77
2021/09/07 10:52:09;;;;;;;15.65;12.95;;;24.20;99.90;;;;;;5051613;28;20079;-77
2021/09/07 10:54:47;;;;;;;12.80;11.50;;;23.80;99.90;;;;;;5051046;28;20029;-77
2021/09/07 10:57:34;;;;;;;14.30;12.20;;;23.70;99.90;;;;;;5050302;28;20021;-77
2021/09/07 11:00:18;;;;;;;16.05;12.75;;;23.70;99.90;;;;;;5050315;28;20079;-77
2021/09/07 11:02:55;;;;;;;16.58;12.38;;;23.60;99.90;;;;;;5051422;28;20025;-77
2021/09/07 11:05:23;;;;;;;13.40;11.48;;;23.80;99.90;;;;;;5061457;28;20086;-77
2021/09/07 11:07:51;;;;;;;13.73;10.73;;;24.20;99.90;;;;;;5054962;28;20070;-77
2021/09/07 11:10:17;;;;;;;13.88;10.95;;;23.90;99.90;;;;;;5065055;28;20044;-77
2021/09/07 11:12:51;;;;;;;14.30;10.70;;;23.70;99.90;;;;;;5058641;28;20483;-77
2021/09/07 11:15:23;;;;;;;13.73;11.10;;;23.90;99.90;;;;;;5053991;28;20083;-77
2021/09/07 11:17:52;;;;;;;14.10;10.20;;;23.50;99.90;;;;;;5068769;28;20434;-77
2021/09/07 11:20:19;;;;;;;12.60;10.75;;;23.80;99.90;;;;;;5067139;28;20044;-77
2021/09/07 11:22:45;;;;;;;13.52;10.40;;;23.90;99.90;;;;;;5073974;28;20505;-77
2021/09/07 11:25:16;;;;;;;12.75;10.35;;;23.90;99.90;;;;;;5075038;28;20023;-77
2021/09/07 11:27:59;;;;;;;18.27;11.40;;;24.10;99.90;;;;;;5061788;28;20021;-77
2021/09/07 11:30:30;;;;;;;13.70;11.13;;;24.00;99.90;;;;;;5059874;28;20032;-77
2021/09/07 11:33:01;;;;;;;13.82;10.75;;;24.00;99.90;;;;;;5055045;28;20439;-77
2021/09/07 11:35:27;;;;;;;13.77;10.95;;;24.20;99.90;;;;;;5053387;28;20028;-77
2021/09/07 11:38:01;;;;;;;14.20;10.38;;;24.20;99.90;;;;;;5054907;28;20100;-77
2021/09/07 11:40:27;;;;;;;11.75;10.35;;;24.20;99.90;;;;;;5054889;28;20017;-77
2021/09/07 11:42:53;;;;;;;16.42;10.70;;;24.30;99.90;;;;;;5054951;28;20032;-77
2021/09/07 11:45:20;;;;;;;13.10;10.30;;;24.20;99.90;;;;;;5054546;28;20033;-77
2021/09/07 11:47:46;;;;;;;13.32;10.60;;;24.40;99.90;;;;;;5054996;28;20491;-77
2021/09/07 11:50:20;;;;;;;13.40;9.95;;;24.50;99.90;;;;;;5054735;28;20078;-77
2021/09/07 11:52:51;;;;;;;20.75;9.90;;;24.70;99.90;;;;;;5054674;28;20575;-77
2021/09/07 11:55:39;;;;;;;14.93;9.77;;;24.60;99.90;;;;;;5059008;28;20139;-77
2021/09/07 11:58:05;;;;;;;14.65;10.15;;;24.90;99.90;;;;;;5057592;28;20049;-77
2021/09/07 12:00:31;;;;;;;11.00;9.65;;;25.40;99.90;;;;;;5054485;28;20032;-77
2021/09/07 12:03:14;;;;;;;11.45;9.27;;;25.30;99.90;;;;;;5053627;28;20025;-77
2021/09/07 12:05:56;;;;;;;10.63;9.20;;;25.30;99.90;;;;;;5054175;28;20411;-77
2021/09/07 12:08:51;;;;;;;11.18;9.02;;;25.50;99.90;;;;;;5053071;28;20472;-77
2021/09/07 12:11:27;;;;;;;11.25;8.18;;;25.50;99.90;;;;;;5058827;28;20044;-77
2021/09/07 12:14:06;;;;;;;8.77;7.93;;;25.50;99.90;;;;;;5074201;28;20031;-77
2021/09/07 12:16:34;;;;;;;17.05;8.77;;;25.30;99.90;;;;;;5065141;28;20028;-77
2021/09/07 12:19:19;;;;;;;9.55;8.35;;;25.80;99.90;;;;;;5052258;28;20025;-77
2021/09/07 12:21:44;;;;;;;11.07;9.23;;;25.30;99.90;;;;;;5054448;28;20365;-77
2021/09/07 12:24:14;;;;;;;11.20;8.85;;;25.50;99.90;;;;;;5053932;28;20024;-77
2021/09/07 12:26:41;;;;;;;13.95;9.20;;;25.40;99.90;;;;;;5054043;28;20113;-77
2021/09/07 12:29:17;;;;;;;11.10;9.20;;;25.10;99.90;;;;;;5054000;28;20029;-77
2021/09/07 12:31:44;;;;;;;11.80;9.70;;;25.10;99.90;;;;;;5052859;28;20025;-77
2021/09/07 12:34:10;;;;;;;11.35;9.07;;;24.90;99.90;;;;;;5053822;28;20029;-77
2021/09/07 12:36:45;;;;;;;10.60;9.07;;;25.30;99.90;;;;;;5052346;28;20051;-77